createdAt,value
2022-11-16T00:01:08.588Z,99402.09
2022-11-16T00:03:35.567Z,99405.84
2022-11-16T00:06:04.528Z,99407.81
2022-11-16T00:08:34.045Z,99397.78
2022-11-16T00:11:08.922Z,99400.31
2022-11-16T00:13:36.052Z,99397.78
2022-11-16T00:16:02.941Z,99399.53
2022-11-16T00:18:29.983Z,99401.34
2022-11-16T00:20:56.999Z,99390.34
2022-11-16T00:23:23.536Z,99399.09
2022-11-16T00:25:50.616Z,99393.56
2022-11-16T00:28:17.610Z,99392.16
2022-11-16T00:30:44.139Z,99396.31
2022-11-16T00:33:15.115Z,99397.75
2022-11-16T00:35:41.658Z,99387.81
2022-11-16T00:38:08.170Z,99385.66
2022-11-16T00:40:34.738Z,99388.03
2022-11-16T00:43:01.269Z,99391.81
2022-11-16T00:45:27.884Z,99390.59
2022-11-16T00:48:00.194Z,99398.00
2022-11-16T00:50:27.098Z,99395.50
2022-11-16T00:52:54.576Z,99396.47
2022-11-16T00:55:21.137Z,99396.69
2022-11-16T00:57:47.733Z,99391.44
2022-11-16T01:00:14.848Z,99390.72
2022-11-16T01:02:41.547Z,99385.41
2022-11-16T01:05:09.678Z,99377.56
2022-11-16T01:07:37.725Z,99371.28
2022-11-16T01:10:07.345Z,99367.22
2022-11-16T01:12:33.859Z,99371.63
2022-11-16T01:15:00.500Z,99372.56
2022-11-16T01:17:27.144Z,99368.34
2022-11-16T01:19:54.038Z,99355.44
2022-11-16T01:22:20.701Z,99348.22
2022-11-16T01:24:47.341Z,99354.78
2022-11-16T01:27:14.338Z,99353.56
2022-11-16T01:29:40.983Z,99343.41
2022-11-16T01:32:07.569Z,99349.06
2022-11-16T01:34:34.296Z,99357.66
2022-11-16T01:37:00.816Z,99350.16
2022-11-16T01:39:27.550Z,99348.75
2022-11-16T01:41:54.192Z,99349.25
2022-11-16T01:44:32.896Z,99343.81
2022-11-16T01:47:00.336Z,99345.03
2022-11-16T01:49:28.748Z,99345.19
2022-11-16T01:51:58.357Z,99339.06
2022-11-16T01:54:24.999Z,99336.31
2022-11-16T01:56:52.664Z,99333.09
2022-11-16T01:59:19.299Z,99326.47
2022-11-16T02:01:45.896Z,99329.09
2022-11-16T02:04:13.453Z,99323.03
2022-11-16T02:07:04.530Z,99333.88
2022-11-16T02:09:55.940Z,99331.44
2022-11-16T02:12:35.714Z,99326.63
2022-11-16T02:15:15.624Z,99325.94
2022-11-16T02:18:03.305Z,99330.81
2022-11-16T02:20:59.506Z,99324.41
2022-11-16T02:23:44.472Z,99316.22
2022-11-16T02:26:34.435Z,99310.56
2022-11-16T02:29:20.567Z,99320.53
2022-11-16T02:32:00.384Z,99311.94
2022-11-16T02:34:30.673Z,99308.09
2022-11-16T02:36:58.818Z,99301.03
2022-11-16T02:39:27.157Z,99302.56
2022-11-16T02:41:55.354Z,99310.13
2022-11-16T02:44:26.785Z,99301.38
2022-11-16T02:46:57.224Z,99313.34
2022-11-16T02:49:25.284Z,99305.63
2022-11-16T02:51:53.587Z,99304.31
2022-11-16T02:54:21.708Z,99299.59
2022-11-16T02:57:04.476Z,99299.78
2022-11-16T02:59:40.161Z,99295.88
2022-11-16T03:02:19.991Z,99277.88
2022-11-16T03:04:49.214Z,99282.28
2022-11-16T03:07:18.975Z,99271.06
2022-11-16T03:09:45.627Z,99273.25
2022-11-16T03:12:16.837Z,99273.66
2022-11-16T03:15:01.047Z,99276.03
2022-11-16T03:17:30.051Z,99277.28
2022-11-16T03:20:18.173Z,99277.13
2022-11-16T03:22:46.900Z,99279.22
2022-11-16T03:25:16.506Z,99279.22
2022-11-16T03:27:52.201Z,99270.09
2022-11-16T03:30:24.051Z,99267.19
2022-11-16T03:33:03.352Z,99273.88
2022-11-16T03:35:34.816Z,99273.19
2022-11-16T03:38:03.278Z,99267.22
2022-11-16T03:40:32.380Z,99266.50
2022-11-16T03:43:00.225Z,99265.25
2022-11-16T03:45:26.736Z,99264.81
2022-11-16T03:47:53.906Z,99264.97
2022-11-16T03:50:20.380Z,99258.22
2022-11-16T03:52:46.791Z,99263.34
2022-11-16T03:55:13.612Z,99259.28
2022-11-16T03:57:40.067Z,99258.38
2022-11-16T04:00:07.371Z,99259.31
2022-11-16T04:02:34.190Z,99251.53
2022-11-16T04:05:19.436Z,99248.56
2022-11-16T04:08:06.539Z,99244.91
2022-11-16T04:10:51.456Z,99245.69
2022-11-16T04:13:40.097Z,99242.38
2022-11-16T04:16:27.776Z,99245.44
2022-11-16T04:19:13.929Z,99252.41
2022-11-16T04:22:01.995Z,99243.81
2022-11-16T04:24:31.167Z,99245.88
2022-11-16T04:27:18.600Z,99244.78
2022-11-16T04:29:45.210Z,99243.91
2022-11-16T04:32:30.669Z,99244.63
2022-11-16T04:35:16.257Z,99242.97
2022-11-16T04:37:48.811Z,99236.38
2022-11-16T04:40:16.506Z,99238.19
2022-11-16T04:42:43.377Z,99243.63
2022-11-16T04:45:28.861Z,99236.53
2022-11-16T04:47:55.543Z,99240.75
2022-11-16T04:50:22.125Z,99236.88
2022-11-16T04:52:48.726Z,99239.50
2022-11-16T04:55:15.573Z,99241.72
2022-11-16T04:57:42.004Z,99241.56
2022-11-16T05:00:09.220Z,99248.47
2022-11-16T05:02:35.837Z,99245.44
2022-11-16T05:05:02.331Z,99241.28
2022-11-16T05:07:28.832Z,99241.72
2022-11-16T05:09:55.538Z,99239.44
2022-11-16T05:12:23.730Z,99234.88
2022-11-16T05:14:50.174Z,99236.41
2022-11-16T05:17:18.228Z,99236.16
2022-11-16T05:20:03.367Z,99238.66
2022-11-16T05:22:30.103Z,99240.06
2022-11-16T05:24:56.679Z,99239.94
2022-11-16T05:27:24.418Z,99232.97
2022-11-16T05:29:51.531Z,99229.09
2022-11-16T05:32:19.236Z,99229.94
2022-11-16T05:34:46.635Z,99237.69
2022-11-16T05:37:13.390Z,99230.06
2022-11-16T05:39:40.186Z,99224.09
2022-11-16T05:42:07.583Z,99231.44
2022-11-16T05:44:34.331Z,99227.28
2022-11-16T05:47:01.131Z,99229.50
2022-11-16T05:49:27.637Z,99231.13
2022-11-16T05:51:55.142Z,99220.31
2022-11-16T05:54:24.918Z,99225.84
2022-11-16T05:56:51.930Z,99234.03
2022-11-16T05:59:19.776Z,99231.53
2022-11-16T06:01:46.783Z,99231.66
2022-11-16T06:04:13.550Z,99239.84
2022-11-16T06:06:40.384Z,99237.09
2022-11-16T06:09:07.603Z,99237.81
2022-11-16T06:11:36.009Z,99240.69
2022-11-16T06:14:03.114Z,99246.91
2022-11-16T06:16:29.620Z,99235.69
2022-11-16T06:18:56.310Z,99241.94
2022-11-16T06:21:23.076Z,99234.28
2022-11-16T06:23:49.496Z,99240.25
2022-11-16T06:26:16.135Z,99251.59
2022-11-16T06:28:42.639Z,99246.66
2022-11-16T06:31:09.212Z,99242.88
2022-11-16T06:33:35.837Z,99244.28
2022-11-16T06:36:02.395Z,99237.75
2022-11-16T06:38:29.094Z,99238.31
2022-11-16T06:40:57.292Z,99228.22
2022-11-16T06:43:25.213Z,99231.97
2022-11-16T06:45:55.291Z,99228.66
2022-11-16T06:48:22.340Z,99232.66
2022-11-16T06:50:52.242Z,99235.00
2022-11-16T06:53:19.151Z,99241.28
2022-11-16T06:55:45.685Z,99241.56
2022-11-16T06:58:12.128Z,99235.31
2022-11-16T07:00:38.703Z,99234.47
2022-11-16T07:03:05.300Z,99243.91
2022-11-16T07:05:32.283Z,99245.41
2022-11-16T07:07:59.134Z,99235.19
2022-11-16T07:10:26.026Z,99233.56
2022-11-16T07:12:52.796Z,99236.59
2022-11-16T07:15:19.582Z,99228.41
2022-11-16T07:17:46.231Z,99224.69
2022-11-16T07:20:12.839Z,99224.41
2022-11-16T07:22:40.017Z,99219.13
2022-11-16T07:25:07.108Z,99217.31
2022-11-16T07:27:33.627Z,99224.97
2022-11-16T07:30:02.282Z,99219.69
2022-11-16T07:32:30.944Z,99218.69
2022-11-16T07:35:05.037Z,99217.72
2022-11-16T07:37:31.803Z,99214.09
2022-11-16T07:39:58.431Z,99216.75
2022-11-16T07:42:24.923Z,99208.25
2022-11-16T07:44:51.454Z,99213.53
2022-11-16T07:47:18.042Z,99215.59
2022-11-16T07:49:44.568Z,99223.25
2022-11-16T07:52:11.131Z,99217.28
2022-11-16T07:54:37.582Z,99212.19
2022-11-16T07:57:04.328Z,99210.78
2022-11-16T07:59:30.925Z,99208.03
2022-11-16T08:01:59.150Z,99202.19
2022-11-16T08:04:26.030Z,99205.22
2022-11-16T08:06:52.953Z,99202.47
2022-11-16T08:09:19.743Z,99199.69
2022-11-16T08:11:47.197Z,99208.69
2022-11-16T08:14:14.161Z,99199.56
2022-11-16T08:16:40.901Z,99201.66
2022-11-16T08:19:07.444Z,99207.59
2022-11-16T08:21:33.898Z,99201.66
2022-11-16T08:24:00.387Z,99205.28
2022-11-16T08:26:27.598Z,99200.56
2022-11-16T08:28:57.211Z,99197.94
2022-11-16T08:31:26.792Z,99202.22
2022-11-16T08:33:54.029Z,99192.94
2022-11-16T08:36:22.349Z,99200.56
2022-11-16T08:38:50.304Z,99203.28
2022-11-16T08:41:17.456Z,99198.03
2022-11-16T08:43:46.584Z,99202.59
2022-11-16T08:46:13.753Z,99198.31
2022-11-16T08:48:40.525Z,99207.16
2022-11-16T08:51:17.424Z,99210.22
2022-11-16T08:53:45.228Z,99212.91
2022-11-16T08:56:13.297Z,99215.94
2022-11-16T08:58:47.397Z,99204.31
2022-11-16T09:01:17.084Z,99215.94
2022-11-16T09:03:44.076Z,99212.03
2022-11-16T09:06:11.152Z,99211.38
2022-11-16T09:08:39.082Z,99211.47
2022-11-16T09:11:11.072Z,99213.69
2022-11-16T09:13:37.711Z,99211.03
2022-11-16T09:16:04.846Z,99213.56
2022-11-16T09:18:32.003Z,99208.28
2022-11-16T09:20:59.014Z,99195.25
2022-11-16T09:23:25.919Z,99194.09
2022-11-16T09:25:53.754Z,99187.59
2022-11-16T09:28:21.960Z,99190.81
2022-11-16T09:30:51.158Z,99198.56
2022-11-16T09:33:18.024Z,99189.13
2022-11-16T09:35:44.644Z,99194.56
2022-11-16T09:38:16.024Z,99192.31
2022-11-16T09:40:47.354Z,99186.91
2022-11-16T09:43:29.879Z,99187.59
2022-11-16T09:46:11.564Z,99182.25
2022-11-16T09:48:38.986Z,99188.03
2022-11-16T09:51:09.040Z,99190.56
2022-11-16T09:53:42.591Z,99188.91
2022-11-16T09:56:16.470Z,99188.06
2022-11-16T09:59:17.963Z,99183.63
2022-11-16T10:01:58.553Z,99190.44
2022-11-16T10:04:38.629Z,99186.13
2022-11-16T10:07:21.040Z,99178.38
2022-11-16T10:09:47.862Z,99181.00
2022-11-16T10:12:38.173Z,99177.00
2022-11-16T10:15:52.911Z,99169.78
2022-11-16T10:18:34.496Z,99172.00
2022-11-16T10:21:20.409Z,99168.16
2022-11-16T10:24:08.346Z,99160.38
2022-11-16T10:26:42.160Z,99156.63
2022-11-16T10:29:39.991Z,99145.13
2022-11-16T10:32:22.074Z,99151.25
2022-11-16T10:35:03.328Z,99151.78
2022-11-16T10:37:31.863Z,99149.31
2022-11-16T10:39:58.818Z,99147.63
2022-11-16T10:42:33.550Z,99147.78
2022-11-16T10:45:15.343Z,99156.50
2022-11-16T10:47:47.176Z,99153.19
2022-11-16T10:50:35.017Z,99155.28
2022-11-16T10:53:02.002Z,99148.19
2022-11-16T10:55:28.957Z,99152.34
2022-11-16T10:58:06.045Z,99151.53
2022-11-16T11:01:01.942Z,99153.88
2022-11-16T11:03:32.539Z,99147.91
2022-11-16T11:05:59.964Z,99145.00
2022-11-16T11:08:30.720Z,99144.88
2022-11-16T11:11:25.094Z,99146.69
2022-11-16T11:14:24.059Z,99145.16
2022-11-16T11:16:54.355Z,99140.72
2022-11-16T11:19:24.809Z,99142.94
2022-11-16T11:21:59.132Z,99148.47
2022-11-16T11:27:13.220Z,99152.59
2022-11-16T11:29:41.573Z,99152.88
2022-11-16T11:32:16.872Z,99158.72
2022-11-16T11:34:48.687Z,99152.75
2022-11-16T11:37:22.346Z,99152.75
2022-11-16T11:39:48.871Z,99149.72
2022-11-16T11:42:15.261Z,99144.31
2022-11-16T11:44:51.929Z,99146.53
2022-11-16T11:47:56.169Z,99144.31
2022-11-16T11:50:19.725Z,99143.63
2022-11-16T11:52:57.174Z,99137.66
2022-11-16T11:55:23.753Z,99136.53
2022-11-16T11:57:55.997Z,99143.19
2022-11-16T12:00:23.756Z,99145.13
2022-11-16T12:03:16.948Z,99134.03
2022-11-16T12:05:52.115Z,99126.97
2022-11-16T12:08:34.957Z,99132.53
2022-11-16T12:11:12.486Z,99139.19
2022-11-16T12:13:55.169Z,99139.88
2022-11-16T12:16:47.890Z,99135.44
2022-11-16T12:19:40.999Z,99143.75
2022-11-16T12:22:29.344Z,99142.94
2022-11-16T12:25:22.877Z,99147.56
2022-11-16T12:28:08.430Z,99154.13
2022-11-16T12:30:45.254Z,99149.59
2022-11-16T12:33:31.200Z,99152.56
2022-11-16T12:36:35.209Z,99159.09
2022-11-16T12:39:21.865Z,99153.78
2022-11-16T12:41:57.860Z,99148.28
2022-11-16T12:44:57.578Z,99144.75
2022-11-16T12:47:42.919Z,99149.41
2022-11-16T12:50:40.676Z,99148.25
2022-11-16T12:53:21.920Z,99151.25
2022-11-16T12:55:57.860Z,99153.16
2022-11-16T12:58:39.009Z,99154.78
2022-11-16T13:01:22.326Z,99145.50
2022-11-16T13:03:58.309Z,99153.75
2022-11-16T13:06:42.249Z,99143.78
2022-11-16T13:09:15.727Z,99160.25
2022-11-16T13:11:44.617Z,99162.41
2022-11-16T13:14:15.870Z,99155.75
2022-11-16T13:16:42.555Z,99166.81
2022-11-16T13:19:13.075Z,99164.91
2022-11-16T13:21:59.876Z,99166.25
2022-11-16T13:24:51.116Z,99158.97
2022-11-16T13:27:38.887Z,99169.59
2022-11-16T13:30:21.650Z,99164.69
2022-11-16T13:33:18.074Z,99163.13
2022-11-16T13:35:44.717Z,99157.19
2022-11-16T13:38:13.325Z,99161.38
2022-11-16T13:40:40.659Z,99157.78
2022-11-16T13:43:10.130Z,99158.63
2022-11-16T13:45:50.842Z,99165.28
2022-11-16T13:48:19.482Z,99163.03
2022-11-16T13:50:55.499Z,99164.09
2022-11-16T13:56:47.063Z,99157.56
2022-11-16T13:59:15.365Z,99174.75
2022-11-16T14:02:03.456Z,99163.28
2022-11-16T14:04:55.980Z,99167.84
2022-11-16T14:07:50.201Z,99159.63
2022-11-16T14:10:48.890Z,99165.56
2022-11-16T14:13:40.155Z,99169.13
2022-11-16T14:16:32.257Z,99168.31
2022-11-16T14:19:00.726Z,99171.88
2022-11-16T14:21:49.786Z,99166.97
2022-11-16T14:24:34.678Z,99169.13
2022-11-16T14:27:20.352Z,99161.41
2022-11-16T14:30:16.080Z,99164.25
2022-11-16T14:32:47.666Z,99169.72
2022-11-16T14:35:35.028Z,99168.41
2022-11-16T14:38:06.881Z,99161.59
2022-11-16T14:40:43.372Z,99168.53
2022-11-16T14:43:17.668Z,99172.00
2022-11-16T14:45:48.302Z,99171.16
2022-11-16T14:48:17.190Z,99161.03
2022-11-16T14:50:46.742Z,99167.34
2022-11-16T14:53:16.715Z,99163.50
2022-11-16T14:55:44.978Z,99175.06
2022-11-16T14:58:14.325Z,99163.38
2022-11-16T15:00:40.974Z,99163.66
2022-11-16T15:03:10.943Z,99169.25
2022-11-16T15:05:37.912Z,99174.13
2022-11-16T15:08:14.002Z,99169.09
2022-11-16T15:10:48.083Z,99161.84
2022-11-16T15:13:22.988Z,99163.75
2022-11-16T15:15:50.361Z,99172.22
2022-11-16T15:18:19.018Z,99169.09
2022-11-16T15:20:50.709Z,99168.19
2022-11-16T15:23:18.026Z,99167.09
2022-11-16T15:25:51.725Z,99177.84
2022-11-16T15:28:26.642Z,99174.59
2022-11-16T15:30:58.488Z,99176.75
2022-11-16T15:33:33.825Z,99168.19
2022-11-16T15:36:00.438Z,99163.88
2022-11-16T15:38:28.488Z,99153.38
2022-11-16T15:41:02.935Z,99154.69
2022-11-16T15:43:45.183Z,99167.72
2022-11-16T15:46:22.286Z,99160.78
2022-11-16T15:48:49.007Z,99167.72
2022-11-16T15:51:19.919Z,99165.44
2022-11-16T15:53:48.384Z,99163.78
2022-11-16T15:56:18.816Z,99166.97
2022-11-16T15:58:45.893Z,99161.72
2022-11-16T16:01:13.971Z,99169.25
2022-11-16T16:03:59.116Z,99166.03
2022-11-16T16:06:45.612Z,99167.47
2022-11-16T16:09:25.081Z,99158.75
2022-11-16T16:11:52.716Z,99164.84
2022-11-16T16:14:29.901Z,99162.94
2022-11-16T16:17:00.537Z,99165.06
2022-11-16T16:19:29.554Z,99167.13
2022-11-16T16:21:58.430Z,99160.56
2022-11-16T16:24:43.269Z,99170.78
2022-11-16T16:27:19.674Z,99171.66
2022-11-16T16:29:47.396Z,99168.66
2022-11-16T16:32:37.554Z,99174.50
2022-11-16T16:35:07.179Z,99173.78
2022-11-16T16:37:36.135Z,99167.69
2022-11-16T16:40:03.635Z,99182.47
2022-11-16T16:42:30.392Z,99182.81
2022-11-16T16:44:59.190Z,99179.03
2022-11-16T16:47:25.756Z,99174.84
2022-11-16T16:49:52.274Z,99179.00
2022-11-16T16:52:18.899Z,99172.69
2022-11-16T16:54:45.646Z,99174.25
2022-11-16T16:57:16.228Z,99186.78
2022-11-16T16:59:45.304Z,99186.78
2022-11-16T17:02:12.808Z,99188.91
2022-11-16T17:04:39.827Z,99187.25
2022-11-16T17:07:06.584Z,99193.44
2022-11-16T17:09:33.086Z,99190.81
2022-11-16T17:12:00.547Z,99190.44
2022-11-16T17:14:27.118Z,99184.13
2022-11-16T17:16:53.691Z,99186.28
2022-11-16T17:19:21.041Z,99195.84
2022-11-16T17:21:47.631Z,99195.22
2022-11-16T17:24:14.027Z,99191.78
2022-11-16T17:26:40.918Z,99194.03
2022-11-16T17:29:07.482Z,99200.56
2022-11-16T17:31:33.912Z,99204.88
2022-11-16T17:34:00.646Z,99196.03
2022-11-16T17:36:27.063Z,99197.94
2022-11-16T17:38:54.273Z,99195.81
2022-11-16T17:41:24.348Z,99190.56
2022-11-16T17:43:52.980Z,99191.41
2022-11-16T17:46:21.321Z,99194.84
2022-11-16T17:48:48.398Z,99192.47
2022-11-16T17:51:16.791Z,99199.47
2022-11-16T17:53:46.358Z,99197.56
2022-11-16T17:56:14.787Z,99203.78
2022-11-16T17:58:41.704Z,99206.31
2022-11-16T18:01:08.207Z,99191.06
2022-11-16T18:03:38.574Z,99194.84
2022-11-16T18:06:11.036Z,99189.59
2022-11-16T18:08:39.628Z,99195.31
2022-11-16T18:11:25.995Z,99192.97
2022-11-16T18:14:00.633Z,99184.13
2022-11-16T18:16:29.810Z,99186.63
2022-11-16T18:19:01.111Z,99182.56
2022-11-16T18:21:27.896Z,99187.97
2022-11-16T18:23:55.794Z,99193.22
2022-11-16T18:26:23.878Z,99191.66
2022-11-16T18:28:51.307Z,99198.56
2022-11-16T18:31:20.350Z,99193.22
2022-11-16T18:33:49.007Z,99195.13
2022-11-16T18:36:16.341Z,99193.94
2022-11-16T18:38:42.798Z,99190.81
2022-11-16T18:41:12.157Z,99190.22
2022-11-16T18:43:50.323Z,99197.03
2022-11-16T18:46:18.186Z,99198.34
2022-11-16T18:48:46.772Z,99192.84
2022-11-16T18:51:14.375Z,99199.63
2022-11-16T18:53:42.801Z,99190.13
2022-11-16T18:56:09.612Z,99194.16
2022-11-16T18:58:49.797Z,99191.88
2022-11-16T19:01:19.543Z,99186.78
2022-11-16T19:03:46.283Z,99186.28
2022-11-16T19:06:14.927Z,99196.31
2022-11-16T19:08:42.371Z,99192.03
2022-11-16T19:11:14.201Z,99202.72
2022-11-16T19:13:42.134Z,99190.94
2022-11-16T19:16:10.238Z,99189.25
2022-11-16T19:18:37.429Z,99197.28
2022-11-16T19:21:15.341Z,99188.44
2022-11-16T19:23:44.683Z,99193.69
2022-11-16T19:26:13.172Z,99190.34
2022-11-16T19:28:42.771Z,99195.22
2022-11-16T19:31:29.218Z,99203.81
2022-11-16T19:34:05.492Z,99202.72
2022-11-16T19:36:33.550Z,99197.28
2022-11-16T19:39:00.205Z,99197.38
2022-11-16T19:41:27.402Z,99200.00
2022-11-16T19:43:58.390Z,99202.16
2022-11-16T19:46:26.035Z,99199.63
2022-11-16T19:48:55.901Z,99187.72
2022-11-16T19:51:25.939Z,99200.84
2022-11-16T19:53:52.682Z,99201.53
2022-11-16T19:56:20.936Z,99189.50
2022-11-16T19:58:47.696Z,99200.00
2022-11-16T20:01:19.615Z,99209.41
2022-11-16T20:03:47.085Z,99205.13
2022-11-16T20:06:24.653Z,99207.88
2022-11-16T20:08:54.181Z,99211.47
2022-11-16T20:11:22.583Z,99218.25
2022-11-16T20:13:50.164Z,99212.75
2022-11-16T20:16:18.108Z,99223.50
2022-11-16T20:18:45.165Z,99215.28
2022-11-16T20:21:33.854Z,99221.34
2022-11-16T20:24:06.445Z,99219.09
2022-11-16T20:26:34.444Z,99224.69
2022-11-16T20:29:01.169Z,99221.34
2022-11-16T20:31:30.262Z,99216.69
2022-11-16T20:34:01.993Z,99217.03
2022-11-16T20:36:30.448Z,99217.28
2022-11-16T20:38:57.756Z,99220.53
2022-11-16T20:41:26.757Z,99212.16
2022-11-16T20:43:55.981Z,99203.69
2022-11-16T20:46:25.384Z,99207.88
2022-11-16T20:48:52.161Z,99209.78
2022-11-16T20:51:19.802Z,99206.44
2022-11-16T20:53:47.762Z,99217.75
2022-11-16T20:56:15.257Z,99203.09
2022-11-16T20:58:41.731Z,99207.88
2022-11-16T21:01:11.528Z,99203.91
2022-11-16T21:03:38.841Z,99216.56
2022-11-16T21:06:08.598Z,99221.47
2022-11-16T21:08:36.350Z,99217.75
2022-11-16T21:11:03.057Z,99217.53
2022-11-16T21:13:49.763Z,99223.47
2022-11-16T21:16:16.642Z,99225.88
2022-11-16T21:18:43.240Z,99218.13
2022-11-16T21:21:13.325Z,99217.03
2022-11-16T21:23:43.203Z,99213.69
2022-11-16T21:26:14.696Z,99213.84
2022-11-16T21:28:44.591Z,99217.53
2022-11-16T21:31:18.821Z,99223.97
2022-11-16T21:33:45.714Z,99223.72
2022-11-16T21:36:14.398Z,99210.72
2022-11-16T21:38:41.297Z,99220.13
2022-11-16T21:41:08.763Z,99206.31
2022-11-16T21:43:40.227Z,99207.72
2022-11-16T21:46:10.311Z,99210.13
2022-11-16T21:48:36.994Z,99212.97
2022-11-16T21:51:05.751Z,99206.63
2022-11-16T21:53:32.935Z,99202.84
2022-11-16T21:55:59.838Z,99207.97
2022-11-16T21:58:26.415Z,99218.81
2022-11-16T22:00:57.203Z,99210.69
2022-11-16T22:03:24.567Z,99215.22
2022-11-16T22:06:17.032Z,99205.56
2022-11-16T22:08:44.032Z,99206.31
2022-11-16T22:13:55.594Z,99200.94
2022-11-16T22:16:24.830Z,99199.38
2022-11-16T22:18:51.372Z,99190.56
2022-11-16T22:21:18.166Z,99200.00
2022-11-16T22:23:44.816Z,99200.47
2022-11-16T22:26:14.739Z,99200.81
2022-11-16T22:28:41.475Z,99196.03
2022-11-16T22:31:11.368Z,99196.88
2022-11-16T22:33:38.157Z,99192.47
2022-11-16T22:36:05.456Z,99201.75
2022-11-16T22:38:32.005Z,99195.81
2022-11-16T22:40:58.690Z,99198.56
2022-11-16T22:43:29.811Z,99198.31
2022-11-16T22:46:04.665Z,99200.22
2022-11-16T22:48:36.334Z,99202.72
2022-11-16T22:51:22.502Z,99200.47
2022-11-16T22:53:59.883Z,99198.66
2022-11-16T22:56:26.912Z,99199.75
2022-11-16T22:58:53.847Z,99196.03
2022-11-16T23:01:20.673Z,99199.28
2022-11-16T23:03:47.737Z,99194.50
2022-11-16T23:06:14.602Z,99199.03
2022-11-16T23:08:41.612Z,99192.13
2022-11-16T23:11:30.182Z,99193.41
2022-11-16T23:14:15.764Z,99187.47
2022-11-16T23:16:42.750Z,99188.44
2022-11-16T23:19:30.020Z,99180.75
2022-11-16T23:22:15.820Z,99185.81
2022-11-16T23:25:01.170Z,99190.94
2022-11-16T23:27:39.109Z,99194.59
2022-11-16T23:30:12.158Z,99207.97
2022-11-16T23:32:39.488Z,99205.50
2022-11-16T23:35:06.504Z,99193.41
2022-11-16T23:37:33.094Z,99196.41
2022-11-16T23:39:59.601Z,99199.84
2022-11-16T23:42:44.909Z,99190.69
2022-11-16T23:45:11.490Z,99203.56
2022-11-16T23:47:37.974Z,99206.31
2022-11-16T23:50:04.836Z,99199.28
2022-11-16T23:52:31.324Z,99198.66
2022-11-16T23:54:57.844Z,99195.94
2022-11-16T23:57:24.422Z,99206.78
2022-11-16T23:59:50.905Z,99207.03
